Time;durP1;ratioP1;P1;durP2;ratioP2;P2;SDS_P1;SDS_P2;PMS_P1;PMS_P2;Temp;Humidity;BMP_temperature;BMP_pressure;BME280_temperature;BME280_humidity;BME280_pressure;Samples;Min_cycle;Max_cycle;Signal;HPM_P1;HPM_P2
2021/08/07 00:02:00;;;;;;;12.38;5.95;;;15.30;99.90;;;;;;5011875;28;20026;-72
2021/08/07 00:04:26;;;;;;;13.57;6.95;;;15.20;99.90;;;;;;5011320;28;20026;-73
2021/08/07 00:06:52;;;;;;;8.80;6.60;;;15.30;99.90;;;;;;5011187;28;20447;-72
2021/08/07 00:09:18;;;;;;;17.08;6.57;;;15.20;99.90;;;;;;5011790;28;20041;-71
2021/08/07 00:11:44;;;;;;;12.85;7.43;;;15.10;99.90;;;;;;5011526;28;20030;-73
2021/08/07 00:14:09;;;;;;;11.98;6.50;;;15.20;99.90;;;;;;4994305;28;20423;-73
2021/08/07 00:16:35;;;;;;;15.30;7.43;;;15.20;99.90;;;;;;5011165;28;20364;-72
2021/08/07 00:19:01;;;;;;;15.60;6.95;;;15.30;99.90;;;;;;5011793;28;20026;-74
2021/08/07 00:21:26;;;;;;;12.13;6.53;;;15.20;99.90;;;;;;5011821;28;20028;-74
2021/08/07 00:23:52;;;;;;;9.48;7.03;;;15.20;99.90;;;;;;5011585;28;20033;-74
2021/08/07 00:26:18;;;;;;;12.55;6.65;;;15.20;99.90;;;;;;5010522;28;20110;-74
2021/08/07 00:28:43;;;;;;;9.50;5.70;;;15.20;99.90;;;;;;5011460;28;20026;-74
2021/08/07 00:31:09;;;;;;;8.20;5.93;;;15.20;99.90;;;;;;5011284;28;20026;-73
2021/08/07 00:33:35;;;;;;;6.18;4.90;;;15.20;99.90;;;;;;5011598;28;20030;-74
2021/08/07 00:36:00;;;;;;;7.57;6.05;;;15.10;99.90;;;;;;5010674;28;20064;-73
2021/08/07 00:38:26;;;;;;;13.20;6.07;;;15.10;99.90;;;;;;5011564;28;20026;-73
2021/08/07 00:40:52;;;;;;;12.98;7.10;;;15.20;99.90;;;;;;5010945;28;20040;-73
2021/08/07 00:43:17;;;;;;;13.02;6.05;;;15.30;99.90;;;;;;4993843;28;20026;-73
2021/08/07 00:45:43;;;;;;;10.07;5.30;;;15.30;99.90;;;;;;5010801;28;20101;-72
2021/08/07 00:48:09;;;;;;;11.75;5.50;;;15.20;99.90;;;;;;4993601;28;20218;-73
2021/08/07 00:50:36;;;;;;;9.77;5.55;;;15.20;99.90;;;;;;5009765;28;20033;-73
2021/08/07 00:53:06;;;;;;;12.73;5.45;;;15.30;99.90;;;;;;5013471;28;20030;-73
2021/08/07 00:55:32;;;;;;;8.32;4.55;;;15.30;99.90;;;;;;5014513;28;20033;-73
2021/08/07 00:57:58;;;;;;;12.02;5.57;;;15.30;99.90;;;;;;4997063;28;20030;-73
2021/08/07 01:00:24;;;;;;;8.52;5.60;;;15.30;99.90;;;;;;5014908;28;20018;-73
2021/08/07 01:03:05;;;;;;;7.43;5.20;;;15.40;99.90;;;;;;5015583;28;20025;-74
2021/08/07 01:05:50;;;;;;;6.78;5.05;;;15.30;99.90;;;;;;5031309;28;20040;-73
2021/08/07 01:08:22;;;;;;;6.55;4.68;;;15.30;99.90;;;;;;5015521;28;20105;-73
2021/08/07 01:11:22;;;;;;;4.85;3.92;;;15.20;99.90;;;;;;5014976;28;20034;-73
2021/08/07 01:13:53;;;;;;;4.60;3.55;;;15.20;99.90;;;;;;5015251;28;20029;-73
2021/08/07 01:16:27;;;;;;;7.78;4.03;;;15.20;99.90;;;;;;5014669;28;20487;-73
2021/08/07 01:18:55;;;;;;;7.03;4.50;;;15.30;99.90;;;;;;5015211;28;20076;-73
2021/08/07 01:21:26;;;;;;;6.32;4.50;;;15.30;99.90;;;;;;5014794;28;20076;-72
2021/08/07 01:24:01;;;;;;;8.80;5.33;;;15.30;99.90;;;;;;5014818;28;20026;-73
2021/08/07 01:26:48;;;;;;;9.10;4.63;;;15.40;99.90;;;;;;5013856;28;20569;-73
2021/08/07 01:29:15;;;;;;;11.55;4.65;;;15.30;99.90;;;;;;5014571;28;20022;-73
2021/08/07 01:31:45;;;;;;;13.55;4.82;;;15.30;99.90;;;;;;4997049;28;20054;-74
2021/08/07 01:34:12;;;;;;;9.93;4.65;;;15.40;99.90;;;;;;5014405;28;20072;-72
2021/08/07 01:36:37;;;;;;;8.32;5.40;;;15.40;99.90;;;;;;5013373;28;20120;-72
2021/08/07 01:39:03;;;;;;;5.80;4.15;;;15.40;99.90;;;;;;5014247;28;20025;-72
2021/08/07 01:41:29;;;;;;;8.82;4.68;;;15.40;99.90;;;;;;5013991;28;20042;-72
2021/08/07 01:43:54;;;;;;;14.73;5.40;;;15.30;99.90;;;;;;5061853;23;20067;-72
2021/08/07 01:46:24;;;;;;;10.45;5.13;;;15.40;99.90;;;;;;4944915;29;20115;-72
2021/08/07 01:49:13;;;;;;;6.70;4.07;;;15.40;99.90;;;;;;4936690;29;20039;-73
2021/08/07 01:51:54;;;;;;;7.22;4.60;;;15.10;99.90;;;;;;4936325;29;20038;-73
2021/08/07 01:54:29;;;;;;;8.73;5.40;;;15.20;99.90;;;;;;4936421;29;20038;-72
2021/08/07 01:56:56;;;;;;;7.00;4.88;;;15.20;99.90;;;;;;4919517;29;20454;-71
2021/08/07 01:59:23;;;;;;;9.95;5.13;;;15.10;99.90;;;;;;4936195;29;20020;-72
2021/08/07 02:01:50;;;;;;;9.18;4.95;;;15.30;99.90;;;;;;4936428;29;20051;-73
2021/08/07 02:04:18;;;;;;;6.05;4.35;;;15.20;99.90;;;;;;4934763;29;20062;-74
2021/08/07 02:06:45;;;;;;;4.32;3.92;;;15.20;99.90;;;;;;4936453;29;20513;-74
2021/08/07 02:09:12;;;;;;;6.60;3.40;;;15.20;99.90;;;;;;4936482;29;20119;-74
2021/08/07 02:11:40;;;;;;;8.13;3.40;;;15.20;99.90;;;;;;4935942;29;20426;-73
2021/08/07 02:14:07;;;;;;;6.78;3.17;;;15.30;99.90;;;;;;4959824;28;20034;-72
2021/08/07 02:16:34;;;;;;;6.70;2.88;;;15.10;99.90;;;;;;4974033;28;20390;-74
2021/08/07 02:19:01;;;;;;;3.97;2.92;;;14.90;99.90;;;;;;4974498;28;20135;-73
2021/08/07 02:21:27;;;;;;;6.40;3.17;;;15.00;99.90;;;;;;4956980;28;20050;-74
2021/08/07 02:23:53;;;;;;;3.42;2.83;;;15.00;99.90;;;;;;4974422;28;20135;-74
2021/08/07 02:26:23;;;;;;;8.40;2.92;;;15.00;99.90;;;;;;4973842;28;20030;-73
2021/08/07 02:28:49;;;;;;;9.32;2.58;;;15.00;99.90;;;;;;4973942;28;20035;-73
2021/08/07 02:31:15;;;;;;;3.97;2.70;;;14.90;99.90;;;;;;4974325;28;20378;-73
2021/08/07 02:33:42;;;;;;;4.03;2.38;;;14.70;99.90;;;;;;4974416;28;20033;-73
2021/08/07 02:36:10;;;;;;;7.88;3.55;;;14.70;99.90;;;;;;4973675;28;20029;-73
2021/08/07 02:38:36;;;;;;;7.72;2.83;;;14.70;99.90;;;;;;4974554;28;20030;-74
2021/08/07 02:41:03;;;;;;;4.15;2.78;;;14.70;99.90;;;;;;4974280;28;20027;-74
2021/08/07 02:43:30;;;;;;;5.15;2.70;;;14.70;99.90;;;;;;4974099;28;20035;-72
2021/08/07 02:45:57;;;;;;;4.43;3.00;;;14.60;99.90;;;;;;4973532;28;20023;-74
2021/08/07 02:48:25;;;;;;;10.75;3.53;;;14.60;99.90;;;;;;4974131;28;20050;-74
2021/08/07 02:50:52;;;;;;;5.30;3.20;;;14.90;99.90;;;;;;4956962;28;20093;-74
2021/08/07 02:53:19;;;;;;;11.10;3.88;;;15.00;99.90;;;;;;4974629;28;20030;-74
2021/08/07 02:55:45;;;;;;;8.00;3.47;;;15.10;99.90;;;;;;4973596;28;20030;-73
2021/08/07 02:58:12;;;;;;;4.03;3.10;;;15.10;99.90;;;;;;4973715;28;20473;-72
2021/08/07 03:00:37;;;;;;;4.38;3.33;;;15.00;99.90;;;;;;4973915;28;20026;-74
2021/08/07 03:03:04;;;;;;;4.85;3.47;;;15.00;99.90;;;;;;4973870;28;20027;-73
2021/08/07 03:05:30;;;;;;;6.07;3.30;;;15.00;99.90;;;;;;4973419;28;20051;-73
2021/08/07 03:07:55;;;;;;;6.90;3.67;;;15.00;99.90;;;;;;4973977;28;20460;-73
2021/08/07 03:10:22;;;;;;;5.95;3.38;;;15.00;99.90;;;;;;4974061;28;20139;-73
2021/08/07 03:12:49;;;;;;;8.63;3.25;;;15.00;99.90;;;;;;4973457;28;20070;-74
2021/08/07 03:15:16;;;;;;;6.78;3.70;;;14.90;99.90;;;;;;4972447;28;20070;-72
2021/08/07 03:17:41;;;;;;;9.52;3.72;;;14.80;99.90;;;;;;4975421;28;20069;-74
2021/08/07 03:20:08;;;;;;;5.32;3.58;;;14.70;99.90;;;;;;4977087;28;20478;-73
2021/08/07 03:22:34;;;;;;;6.35;3.70;;;14.70;99.90;;;;;;4977709;28;20019;-74
2021/08/07 03:25:00;;;;;;;14.35;4.10;;;14.60;99.90;;;;;;4975930;28;20019;-73
2021/08/07 03:27:26;;;;;;;7.07;3.67;;;14.60;99.90;;;;;;4976277;28;20086;-72
2021/08/07 03:29:51;;;;;;;10.13;3.70;;;14.60;99.90;;;;;;4976278;28;20397;-72
2021/08/07 03:32:17;;;;;;;6.47;3.95;;;14.70;99.90;;;;;;4975873;28;20081;-74
2021/08/07 03:34:44;;;;;;;4.82;3.95;;;14.80;99.90;;;;;;4958367;28;20027;-73
2021/08/07 03:37:10;;;;;;;6.78;4.20;;;14.90;99.90;;;;;;4976403;28;20073;-73
2021/08/07 03:39:36;;;;;;;8.23;3.88;;;14.70;99.90;;;;;;4976401;28;20018;-74
2021/08/07 03:42:01;;;;;;;4.60;4.15;;;14.70;99.90;;;;;;4976574;28;20121;-73
2021/08/07 03:44:27;;;;;;;7.05;3.60;;;14.80;99.90;;;;;;4975498;28;20049;-73
2021/08/07 03:46:53;;;;;;;13.00;4.00;;;14.60;99.90;;;;;;4976271;28;20027;-73
2021/08/07 03:49:18;;;;;;;9.30;4.65;;;14.70;99.90;;;;;;4976127;28;20051;-73
2021/08/07 03:51:44;;;;;;;9.50;4.85;;;14.80;99.90;;;;;;4976113;28;20030;-73
2021/08/07 03:54:10;;;;;;;7.88;4.82;;;14.80;99.90;;;;;;4976328;28;20037;-74
2021/08/07 03:56:35;;;;;;;9.43;5.05;;;14.80;99.90;;;;;;4975470;28;20512;-73
2021/08/07 03:59:01;;;;;;;5.20;4.70;;;14.80;99.90;;;;;;4975569;28;20027;-74
2021/08/07 04:01:27;;;;;;;8.93;4.22;;;14.70;99.90;;;;;;4976222;28;20032;-73
2021/08/07 04:03:52;;;;;;;8.80;4.18;;;14.50;99.90;;;;;;4975885;28;20019;-73
2021/08/07 04:06:18;;;;;;;12.75;4.32;;;14.60;99.90;;;;;;4975593;28;20381;-74
2021/08/07 04:08:44;;;;;;;7.25;4.70;;;14.70;99.90;;;;;;4975106;28;20030;-73
2021/08/07 04:11:09;;;;;;;10.30;4.65;;;14.60;99.90;;;;;;4972673;28;20038;-73
2021/08/07 04:13:35;;;;;;;9.18;5.10;;;14.60;99.90;;;;;;4955323;28;20481;-73
2021/08/07 04:16:00;;;;;;;7.43;5.65;;;14.70;99.90;;;;;;4972297;28;20031;-73
2021/08/07 04:18:26;;;;;;;8.40;5.28;;;14.70;99.90;;;;;;4972946;28;20023;-73
2021/08/07 04:20:52;;;;;;;13.93;5.72;;;14.60;99.90;;;;;;4972797;28;20022;-74
2021/08/07 04:23:18;;;;;;;9.20;5.25;;;14.60;99.90;;;;;;4955362;28;20078;-73
2021/08/07 04:25:44;;;;;;;7.10;5.55;;;14.60;99.90;;;;;;4971777;28;20023;-73
2021/08/07 04:28:10;;;;;;;10.85;5.53;;;14.60;99.90;;;;;;4974684;28;20041;-73
2021/08/07 04:30:36;;;;;;;10.23;5.90;;;14.70;99.90;;;;;;4976688;28;20051;-73
2021/08/07 04:33:02;;;;;;;9.63;5.93;;;14.70;99.90;;;;;;4976396;28;20544;-72
2021/08/07 04:35:27;;;;;;;11.10;5.50;;;14.70;99.90;;;;;;4975927;28;20027;-72
2021/08/07 04:37:56;;;;;;;9.48;6.05;;;14.70;99.90;;;;;;4976423;28;20050;-73
2021/08/07 04:40:23;;;;;;;7.00;5.00;;;14.60;99.90;;;;;;4976299;28;20485;-73
2021/08/07 04:42:49;;;;;;;8.40;4.82;;;14.80;99.90;;;;;;4976122;28;20052;-73
2021/08/07 04:45:15;;;;;;;6.07;4.28;;;14.60;99.90;;;;;;4975474;28;20031;-74
2021/08/07 04:47:56;;;;;;;9.20;4.25;;;14.70;99.90;;;;;;4976293;28;20028;-73
2021/08/07 04:50:28;;;;;;;7.50;3.65;;;14.60;99.90;;;;;;4976265;28;20489;-73
2021/08/07 04:52:55;;;;;;;11.50;3.55;;;14.50;99.90;;;;;;4976003;28;20026;-73
2021/08/07 04:55:21;;;;;;;6.55;3.30;;;14.40;99.90;;;;;;4975424;28;20034;-73
2021/08/07 04:57:47;;;;;;;7.25;3.65;;;14.50;99.90;;;;;;4958686;28;20084;-73
2021/08/07 05:00:14;;;;;;;7.35;3.40;;;14.80;99.90;;;;;;4975923;28;20170;-73
2021/08/07 05:02:40;;;;;;;5.60;3.33;;;14.80;99.90;;;;;;4976113;28;20362;-72
2021/08/07 05:05:06;;;;;;;9.07;3.25;;;14.80;99.90;;;;;;4975295;28;20169;-72
2021/08/07 05:07:32;;;;;;;8.20;3.42;;;14.90;99.90;;;;;;4958439;28;20493;-71
2021/08/07 05:09:59;;;;;;;7.60;2.88;;;14.70;99.90;;;;;;4975912;28;20030;-73
2021/08/07 05:12:27;;;;;;;6.15;3.40;;;14.60;99.90;;;;;;4975749;28;20374;-72
2021/08/07 05:14:56;;;;;;;3.60;2.80;;;14.70;99.90;;;;;;4974996;28;20055;-73
2021/08/07 05:17:23;;;;;;;6.13;3.50;;;14.80;99.90;;;;;;4975738;28;20086;-73
2021/08/07 05:19:49;;;;;;;7.63;3.47;;;14.80;99.90;;;;;;4975569;28;20481;-71
2021/08/07 05:22:15;;;;;;;7.78;3.30;;;14.80;99.90;;;;;;4975655;28;20027;-72
2021/08/07 05:24:40;;;;;;;4.85;3.53;;;14.80;99.90;;;;;;4975046;28;20054;-74
2021/08/07 05:27:06;;;;;;;5.25;3.30;;;14.80;99.90;;;;;;4932814;29;20043;-71
2021/08/07 05:29:32;;;;;;;7.82;3.40;;;14.80;99.90;;;;;;4955320;29;20083;-73
2021/08/07 05:31:57;;;;;;;6.45;3.42;;;14.90;99.90;;;;;;4958074;29;20024;-72
2021/08/07 05:34:23;;;;;;;5.15;3.20;;;15.00;99.90;;;;;;4955022;29;20194;-72
2021/08/07 05:36:48;;;;;;;7.72;3.72;;;15.20;99.90;;;;;;4949573;29;20489;-72
2021/08/07 05:39:14;;;;;;;7.25;3.33;;;15.20;99.90;;;;;;4944241;28;20430;-73
2021/08/07 05:41:40;;;;;;;5.00;3.53;;;15.40;99.90;;;;;;4945025;29;20027;-72
2021/08/07 05:44:05;;;;;;;6.70;3.45;;;15.50;99.90;;;;;;4945970;28;20032;-73
2021/08/07 05:46:31;;;;;;;6.38;3.17;;;15.70;99.90;;;;;;4955147;29;20085;-72
2021/08/07 05:48:57;;;;;;;4.53;3.10;;;15.90;99.90;;;;;;4955236;29;20034;-74
2021/08/07 05:51:23;;;;;;;6.53;3.00;;;15.60;99.90;;;;;;4955850;29;20031;-76
2021/08/07 05:53:48;;;;;;;4.38;2.90;;;15.40;99.90;;;;;;4955686;29;20054;-76
2021/08/07 05:56:14;;;;;;;8.18;3.03;;;15.40;99.90;;;;;;4947741;29;20474;-77
2021/08/07 05:58:40;;;;;;;7.85;2.97;;;15.40;99.90;;;;;;4928753;29;20023;-76
2021/08/07 06:01:06;;;;;;;10.68;2.92;;;15.30;99.90;;;;;;4945623;29;20031;-76
2021/08/07 06:03:33;;;;;;;9.98;2.63;;;15.50;99.90;;;;;;4928893;29;20025;-76
2021/08/07 06:05:58;;;;;;;5.40;2.70;;;15.80;99.90;;;;;;4948391;29;20027;-75
2021/08/07 06:08:24;;;;;;;3.88;2.50;;;16.00;99.90;;;;;;4941577;29;20094;-76
2021/08/07 06:10:50;;;;;;;3.15;2.35;;;16.10;99.90;;;;;;4945882;29;20026;-76
2021/08/07 06:13:15;;;;;;;5.45;2.38;;;16.60;99.90;;;;;;4928381;29;20035;-75
2021/08/07 06:15:41;;;;;;;5.35;2.40;;;16.80;99.90;;;;;;4945667;29;20430;-76
2021/08/07 06:18:07;;;;;;;8.45;2.40;;;16.80;99.90;;;;;;4954456;29;20398;-72
2021/08/07 06:20:32;;;;;;;3.95;2.22;;;16.80;99.90;;;;;;4954403;29;20553;-72
2021/08/07 06:22:58;;;;;;;4.07;2.10;;;16.80;99.90;;;;;;4936036;29;20046;-72
2021/08/07 06:25:24;;;;;;;3.13;2.42;;;16.70;99.90;;;;;;4935356;29;20553;-73
2021/08/07 06:27:56;;;;;;;5.70;2.30;;;16.60;99.90;;;;;;4935538;29;20087;-72
2021/08/07 06:30:24;;;;;;;5.97;2.08;;;16.60;99.90;;;;;;4918382;29;20059;-70
2021/08/07 06:32:50;;;;;;;5.43;2.67;;;16.60;99.90;;;;;;4935689;29;20100;-70
2021/08/07 06:35:16;;;;;;;4.25;2.42;;;16.90;99.90;;;;;;4934845;29;20066;-70
2021/08/07 06:37:44;;;;;;;4.82;2.20;;;17.10;99.90;;;;;;4935260;29;20502;-71
2021/08/07 06:40:11;;;;;;;7.38;2.70;;;17.50;99.90;;;;;;4935405;29;20644;-71
2021/08/07 06:42:38;;;;;;;5.35;2.40;;;17.70;99.90;;;;;;4935952;28;20031;-74
2021/08/07 06:45:04;;;;;;;1.83;1.67;;;17.90;99.90;;;;;;4956180;28;20742;-73
2021/08/07 06:47:30;;;;;;;4.03;2.10;;;18.10;99.90;;;;;;4972464;28;20379;-73
2021/08/07 06:49:56;;;;;;;3.95;1.80;;;18.10;99.90;;;;;;4973234;28;20042;-73
2021/08/07 06:52:22;;;;;;;4.95;2.05;;;18.10;99.90;;;;;;4973255;28;20031;-74
2021/08/07 06:54:48;;;;;;;2.97;1.48;;;18.20;99.90;;;;;;4973846;28;20038;-73
2021/08/07 06:57:18;;;;;;;4.55;1.70;;;18.40;99.90;;;;;;4974055;28;20026;-73
2021/08/07 06:59:44;;;;;;;4.75;1.90;;;18.40;99.90;;;;;;4973320;28;20027;-72
2021/08/07 07:02:10;;;;;;;5.32;2.28;;;18.30;99.90;;;;;;4974937;28;20027;-72
2021/08/07 07:04:35;;;;;;;4.93;1.52;;;18.10;99.90;;;;;;4973097;28;20070;-73
2021/08/07 07:07:02;;;;;;;3.70;1.80;;;17.80;99.90;;;;;;4973657;28;20061;-73
2021/08/07 07:09:28;;;;;;;6.18;1.77;;;17.60;99.90;;;;;;4973315;28;20370;-73
2021/08/07 07:11:53;;;;;;;8.23;2.13;;;17.60;99.90;;;;;;4973593;28;20033;-73
2021/08/07 07:14:19;;;;;;;4.00;1.50;;;17.70;99.90;;;;;;4938045;29;20031;-72
2021/08/07 07:16:46;;;;;;;4.90;1.67;;;17.90;99.90;;;;;;4934944;29;20034;-73
2021/08/07 07:19:11;;;;;;;5.47;1.50;;;17.80;99.90;;;;;;4934458;29;20115;-74
2021/08/07 07:21:37;;;;;;;4.43;1.58;;;17.80;99.90;;;;;;4945298;29;20046;-74
2021/08/07 07:24:03;;;;;;;2.35;1.30;;;18.00;99.90;;;;;;4957477;29;20500;-77
2021/08/07 07:26:29;;;;;;;5.03;1.90;;;18.40;99.90;;;;;;4940921;29;20378;-78
2021/08/07 07:28:56;;;;;;;5.10;1.50;;;18.80;99.90;;;;;;4954714;29;20038;-76
2021/08/07 07:31:22;;;;;;;4.93;1.73;;;19.30;99.90;;;;;;4937965;29;20077;-77
2021/08/07 07:33:48;;;;;;;7.15;1.58;;;19.30;99.90;;;;;;4955734;29;20062;-78
2021/08/07 07:36:14;;;;;;;3.83;1.52;;;19.30;99.90;;;;;;4938169;29;20059;-77
2021/08/07 07:38:40;;;;;;;5.75;1.52;;;19.40;99.90;;;;;;4955478;29;20042;-77
2021/08/07 07:41:06;;;;;;;2.67;1.63;;;19.10;99.90;;;;;;4955106;29;20037;-76
2021/08/07 07:43:32;;;;;;;7.25;1.92;;;18.70;99.90;;;;;;4963438;28;20034;-77
2021/08/07 07:45:58;;;;;;;3.90;1.67;;;18.70;99.90;;;;;;5027128;23;20146;-77
2021/08/07 07:48:24;;;;;;;1.88;1.40;;;18.90;99.90;;;;;;5008945;28;20046;-78
2021/08/07 07:50:50;;;;;;;3.13;1.55;;;19.20;99.90;;;;;;5005437;28;20053;-77
2021/08/07 07:53:16;;;;;;;4.68;1.98;;;19.40;99.90;;;;;;5010794;28;20026;-78
2021/08/07 07:55:42;;;;;;;4.18;1.83;;;19.50;99.90;;;;;;5010632;28;20028;-79
2021/08/07 07:58:08;;;;;;;4.35;1.65;;;19.40;99.90;;;;;;5005824;28;20151;-78
2021/08/07 08:00:34;;;;;;;4.72;1.50;;;19.20;99.90;;;;;;5002025;28;20034;-74
2021/08/07 08:02:59;;;;;;;1.67;1.40;;;19.40;99.90;;;;;;4994772;28;20022;-73
2021/08/07 08:05:25;;;;;;;4.55;1.63;;;19.80;99.90;;;;;;4994806;28;20109;-74
2021/08/07 08:07:51;;;;;;;5.28;1.60;;;20.00;99.90;;;;;;4994579;28;20030;-74
2021/08/07 08:10:17;;;;;;;2.60;1.60;;;20.00;99.90;;;;;;4977010;28;20026;-71
2021/08/07 08:12:44;;;;;;;1.95;1.20;;;20.40;99.90;;;;;;4993626;28;20026;-72
2021/08/07 08:15:12;;;;;;;2.42;1.15;;;20.60;99.90;;;;;;4993466;28;20419;-72
2021/08/07 08:17:38;;;;;;;3.22;1.67;;;20.60;99.90;;;;;;4992091;28;20105;-74
2021/08/07 08:20:06;;;;;;;1.52;1.00;;;20.80;99.90;;;;;;4991866;28;20449;-72
2021/08/07 08:22:32;;;;;;;2.42;1.40;;;20.90;99.90;;;;;;4992183;28;20100;-74
2021/08/07 08:24:58;;;;;;;5.10;1.10;;;20.80;99.90;;;;;;4990699;28;20030;-73
2021/08/07 08:27:24;;;;;;;3.65;1.42;;;20.70;99.90;;;;;;4973751;28;20034;-72
2021/08/07 08:29:50;;;;;;;2.97;1.20;;;20.90;99.90;;;;;;4991514;28;20031;-74
2021/08/07 08:32:16;;;;;;;3.05;1.25;;;21.10;99.90;;;;;;4991191;28;20527;-73
2021/08/07 08:34:42;;;;;;;4.40;1.40;;;21.20;99.90;;;;;;4975026;28;20037;-72
2021/08/07 08:37:08;;;;;;;5.40;1.52;;;20.90;99.90;;;;;;4994080;28;20026;-72
2021/08/07 08:39:34;;;;;;;2.67;1.20;;;20.50;99.90;;;;;;4992584;28;20511;-72
2021/08/07 08:42:00;;;;;;;4.03;1.30;;;20.30;99.90;;;;;;4991456;28;20381;-72
2021/08/07 08:44:26;;;;;;;4.95;1.38;;;20.40;99.90;;;;;;4991271;28;20429;-71
2021/08/07 08:46:53;;;;;;;1.40;0.98;;;20.20;99.90;;;;;;4990753;28;20121;-73
2021/08/07 08:49:20;;;;;;;2.60;1.55;;;20.10;99.90;;;;;;4991334;28;20029;-75
2021/08/07 08:51:48;;;;;;;1.58;1.25;;;20.10;99.90;;;;;;4973791;28;20114;-73
2021/08/07 08:54:17;;;;;;;2.03;1.15;;;19.80;99.90;;;;;;4991687;28;20034;-72
2021/08/07 08:56:47;;;;;;;2.85;1.27;;;19.80;99.90;;;;;;4991258;28;20377;-72
2021/08/07 08:59:13;;;;;;;4.53;1.33;;;19.80;99.90;;;;;;4991118;28;20046;-71
2021/08/07 09:01:39;;;;;;;4.97;1.30;;;19.90;99.90;;;;;;4991198;28;20512;-72
2021/08/07 09:04:05;;;;;;;2.17;1.20;;;20.00;99.90;;;;;;4991157;28;20026;-73
2021/08/07 09:06:32;;;;;;;6.18;1.67;;;20.00;99.90;;;;;;4973216;28;20031;-72
2021/08/07 09:09:04;;;;;;;4.13;1.70;;;20.10;99.90;;;;;;4991042;28;20085;-73
2021/08/07 09:11:31;;;;;;;3.30;1.30;;;20.00;99.90;;;;;;4991366;28;20369;-71
2021/08/07 09:14:24;;;;;;;3.65;1.80;;;20.00;99.90;;;;;;4993164;28;20057;-71
2021/08/07 09:16:59;;;;;;;7.65;1.55;;;20.00;99.90;;;;;;4992397;28;20038;-71
2021/08/07 09:19:45;;;;;;;6.40;1.80;;;19.80;99.90;;;;;;4994340;28;20022;-72
2021/08/07 09:22:10;;;;;;;2.92;1.58;;;19.40;99.90;;;;;;5008592;28;20437;-71
2021/08/07 09:24:55;;;;;;;5.25;1.65;;;19.40;99.90;;;;;;5008126;28;20093;-71
2021/08/07 09:27:41;;;;;;;4.00;1.73;;;19.60;99.90;;;;;;4994684;28;20105;-72
2021/08/07 09:30:19;;;;;;;3.03;1.30;;;19.60;99.90;;;;;;4994412;28;20042;-72
2021/08/07 09:32:57;;;;;;;1.98;1.40;;;19.70;99.90;;;;;;4977027;28;20582;-73
2021/08/07 09:35:34;;;;;;;2.72;1.50;;;19.70;99.90;;;;;;4993656;28;20037;-72
2021/08/07 09:38:04;;;;;;;4.78;1.90;;;19.50;99.90;;;;;;4994257;28;20022;-72
2021/08/07 09:40:45;;;;;;;8.82;1.90;;;19.30;99.90;;;;;;4994896;28;20026;-72
2021/08/07 09:43:12;;;;;;;3.67;1.73;;;19.20;99.90;;;;;;4994407;28;20033;-72
2021/08/07 09:45:38;;;;;;;5.10;2.28;;;19.20;99.90;;;;;;4993758;28;20069;-73
2021/08/07 09:48:07;;;;;;;3.97;1.85;;;19.20;99.90;;;;;;4994425;28;20073;-72
2021/08/07 09:50:34;;;;;;;5.82;1.92;;;19.10;99.90;;;;;;4994296;28;20045;-72
2021/08/07 09:53:02;;;;;;;6.22;2.05;;;19.20;99.90;;;;;;4994062;28;20030;-72
2021/08/07 09:55:28;;;;;;;4.97;2.05;;;19.10;99.90;;;;;;4993522;28;20026;-74
2021/08/07 09:58:10;;;;;;;3.85;1.88;;;19.00;99.90;;;;;;4994188;28;20038;-71
2021/08/07 10:00:38;;;;;;;3.50;1.50;;;19.10;99.90;;;;;;4994307;28;20018;-71
2021/08/07 10:03:28;;;;;;;3.72;1.80;;;18.90;99.90;;;;;;4993380;28;20108;-70
2021/08/07 10:05:54;;;;;;;4.93;1.88;;;19.10;99.90;;;;;;4993372;28;20503;-71
2021/08/07 10:08:20;;;;;;;4.30;1.80;;;19.20;99.90;;;;;;4998284;28;20615;-72
2021/08/07 10:10:50;;;;;;;3.28;1.88;;;19.30;99.90;;;;;;4991871;28;20040;-72
2021/08/07 10:13:16;;;;;;;6.47;1.75;;;19.40;99.90;;;;;;5013390;28;20030;-72
2021/08/07 10:15:43;;;;;;;4.35;1.80;;;19.40;99.90;;;;;;4975551;28;20033;-73
2021/08/07 10:18:09;;;;;;;6.47;1.90;;;18.90;99.90;;;;;;4993424;28;20027;-71
2021/08/07 10:20:38;;;;;;;4.22;1.90;;;18.20;99.90;;;;;;4993923;28;20114;-73
2021/08/07 10:23:05;;;;;;;3.45;1.95;;;18.20;99.90;;;;;;4993709;28;20037;-72
2021/08/07 10:25:32;;;;;;;6.93;2.33;;;18.50;99.90;;;;;;4992029;28;20114;-72
2021/08/07 10:28:00;;;;;;;2.65;1.90;;;18.50;99.90;;;;;;4993592;28;20523;-72
2021/08/07 10:30:29;;;;;;;2.20;1.98;;;18.50;99.90;;;;;;4993769;28;20038;-72
2021/08/07 10:32:56;;;;;;;3.20;1.90;;;18.60;99.90;;;;;;4994116;28;20660;-71
2021/08/07 10:35:25;;;;;;;4.80;2.50;;;18.80;99.90;;;;;;4993136;28;20092;-71
2021/08/07 10:37:53;;;;;;;3.13;2.05;;;18.90;99.90;;;;;;4993367;28;20058;-72
2021/08/07 10:40:19;;;;;;;2.70;2.10;;;19.00;99.90;;;;;;4976472;28;20033;-71
2021/08/07 10:42:46;;;;;;;9.25;2.47;;;19.20;99.90;;;;;;4993059;28;20037;-72
2021/08/07 10:45:13;;;;;;;4.15;2.17;;;19.20;99.90;;;;;;4992554;28;20138;-70
2021/08/07 10:47:41;;;;;;;6.80;2.75;;;19.10;99.90;;;;;;4994353;28;20026;-73
2021/08/07 10:50:24;;;;;;;4.00;2.08;;;19.20;99.90;;;;;;4977163;28;20034;-73
2021/08/07 10:53:12;;;;;;;6.45;3.00;;;19.20;99.90;;;;;;4975774;28;20030;-73
2021/08/07 10:55:54;;;;;;;4.28;2.75;;;19.10;99.90;;;;;;4992471;28;20027;-73
2021/08/07 10:58:31;;;;;;;6.10;3.20;;;18.90;99.90;;;;;;4993100;28;20432;-75
2021/08/07 11:01:22;;;;;;;2.90;2.50;;;19.00;99.90;;;;;;4994163;28;20229;-75
2021/08/07 11:03:51;;;;;;;4.82;3.15;;;19.10;99.90;;;;;;4990547;28;20026;-74
2021/08/07 11:06:18;;;;;;;2.70;2.50;;;19.10;99.90;;;;;;5012433;28;20405;-76
2021/08/07 11:09:06;;;;;;;2.85;2.30;;;19.10;99.90;;;;;;5012391;28;20141;-76
2021/08/07 11:11:32;;;;;;;6.40;2.15;;;19.30;99.90;;;;;;4992764;28;20101;-75
2021/08/07 11:14:26;;;;;;;2.40;1.83;;;19.40;99.90;;;;;;4992564;28;20330;-73
2021/08/07 11:19:48;;;;;;;4.10;2.30;;;19.20;99.90;;;;;;4992538;28;20177;-73
2021/08/07 11:22:37;;;;;;;3.60;2.25;;;19.30;99.90;;;;;;4992620;28;20481;-73
2021/08/07 11:25:10;;;;;;;3.35;2.15;;;19.40;99.90;;;;;;4953617;28;20516;-74
2021/08/07 11:30:45;;;;;;;5.40;2.20;;;19.50;99.90;;;;;;4992381;28;20050;-73
2021/08/07 11:33:11;;;;;;;2.97;2.45;;;19.60;99.90;;;;;;4948747;28;20068;-73
2021/08/07 11:35:45;;;;;;;4.75;2.38;;;19.50;99.90;;;;;;4991427;28;20022;-73
2021/08/07 11:38:18;;;;;;;6.90;2.50;;;19.70;99.90;;;;;;4991516;28;20484;-73
2021/08/07 11:40:52;;;;;;;4.70;2.15;;;19.40;99.90;;;;;;5008216;28;20026;-73
2021/08/07 11:43:26;;;;;;;5.50;2.40;;;19.10;99.90;;;;;;5011701;28;20411;-73
2021/08/07 11:45:55;;;;;;;3.85;2.30;;;18.90;99.90;;;;;;5010987;28;20029;-73
2021/08/07 11:48:39;;;;;;;5.15;2.40;;;19.00;99.90;;;;;;5011255;28;20068;-73
2021/08/07 11:51:10;;;;;;;2.97;2.22;;;19.20;99.90;;;;;;5012047;28;20022;-73
2021/08/07 11:53:41;;;;;;;5.70;2.22;;;19.50;99.90;;;;;;5004832;28;20105;-73
2021/08/07 11:56:12;;;;;;;3.78;2.60;;;19.70;99.90;;;;;;4991332;28;20030;-73
2021/08/07 11:58:49;;;;;;;3.00;2.40;;;19.80;99.90;;;;;;4992693;28;20019;-73
2021/08/07 12:01:16;;;;;;;3.70;2.15;;;20.00;99.90;;;;;;4992089;28;20389;-73
2021/08/07 12:03:44;;;;;;;3.75;1.88;;;20.10;99.90;;;;;;5005844;28;20468;-74
2021/08/07 12:06:11;;;;;;;3.67;1.90;;;20.00;99.90;;;;;;5010668;28;20026;-73
2021/08/07 12:08:37;;;;;;;2.25;1.90;;;19.80;99.90;;;;;;5011446;28;20022;-73
2021/08/07 12:11:11;;;;;;;6.53;2.10;;;19.60;99.90;;;;;;5012404;28;20025;-75
2021/08/07 12:13:40;;;;;;;5.97;1.70;;;19.40;99.90;;;;;;5012434;28;20110;-75
2021/08/07 12:16:09;;;;;;;1.85;1.75;;;19.60;99.90;;;;;;4998579;28;20026;-74
2021/08/07 12:18:45;;;;;;;2.80;1.60;;;19.40;99.90;;;;;;4984959;28;20118;-73
2021/08/07 12:21:33;;;;;;;4.40;2.05;;;19.40;99.90;;;;;;4998093;28;20019;-74
2021/08/07 12:23:59;;;;;;;3.40;1.70;;;19.40;99.90;;;;;;4974145;28;20456;-74
2021/08/07 12:26:25;;;;;;;3.80;1.63;;;19.40;99.90;;;;;;4991198;28;20033;-74
2021/08/07 12:29:00;;;;;;;1.45;1.35;;;19.70;99.90;;;;;;4991693;28;20035;-73
2021/08/07 12:31:42;;;;;;;2.92;1.80;;;19.50;99.90;;;;;;4991837;28;20034;-74
2021/08/07 12:34:20;;;;;;;3.22;1.50;;;19.20;99.90;;;;;;4991488;28;20483;-75
2021/08/07 12:37:02;;;;;;;2.03;1.75;;;19.10;99.90;;;;;;4992129;28;20149;-73
2021/08/07 12:39:37;;;;;;;4.13;1.60;;;18.80;99.90;;;;;;4980421;28;20105;-73
2021/08/07 12:42:03;;;;;;;1.52;1.27;;;18.90;99.90;;;;;;5012661;28;20025;-74
2021/08/07 12:44:29;;;;;;;2.97;1.52;;;19.00;99.90;;;;;;5011099;28;20476;-73
2021/08/07 12:46:56;;;;;;;2.53;1.50;;;18.80;99.90;;;;;;5012239;28;20046;-74
2021/08/07 12:49:33;;;;;;;1.60;1.30;;;18.70;99.90;;;;;;5013700;28;20492;-75
2021/08/07 12:52:15;;;;;;;4.43;1.70;;;18.80;99.90;;;;;;5015712;28;20116;-74
2021/08/07 12:54:42;;;;;;;2.37;1.83;;;18.90;99.90;;;;;;5014435;28;20496;-74
2021/08/07 12:57:25;;;;;;;5.13;1.80;;;18.90;99.90;;;;;;5015160;28;20288;-74
2021/08/07 12:59:53;;;;;;;3.20;1.65;;;18.90;99.90;;;;;;5015459;28;20469;-74